Time;durP1;ratioP1;P1;durP2;ratioP2;P2;SDS_P1;SDS_P2;PMS_P1;PMS_P2;Temp;Humidity;BMP_temperature;BMP_pressure;BME280_temperature;BME280_humidity;BME280_pressure;Samples;Min_cycle;Max_cycle;Signal;HPM_P1;HPM_P2
2022/04/03 00:00:54;;;;;;;;;20.50;20.00;;;;;-142.59;100.00;56100.38;5094249;27;49809;-70
2022/04/03 00:03:20;;;;;;;;;15.25;13.75;;;;;-142.59;100.00;56100.38;5094461;27;50217;-70
2022/04/03 00:05:45;;;;;;;;;16.25;13.25;;;;;-142.59;100.00;56100.38;5094624;27;49755;-73
2022/04/03 00:08:12;;;;;;;;;22.25;20.75;;;;;-142.59;100.00;56100.38;5094061;27;49764;-72
2022/04/03 00:10:39;;;;;;;;;20.25;14.75;;;;;-142.59;100.00;56100.38;5094171;27;49734;-67
2022/04/03 00:13:06;;;;;;;;;17.25;15.00;;;;;-142.59;100.00;56100.38;5093988;27;49690;-72
2022/04/03 00:15:32;;;;;;;;;16.75;16.00;;;;;-142.59;100.00;56100.38;5094174;27;50013;-71
2022/04/03 00:17:57;;;;;;;;;17.75;16.25;;;;;-142.59;100.00;56100.38;5093849;27;50661;-70
2022/04/03 00:20:22;;;;;;;;;18.75;17.75;;;;;-142.59;100.00;56100.38;5093967;27;50004;-71
2022/04/03 00:22:49;;;;;;;;;23.50;20.75;;;;;-142.59;100.00;56100.38;5094041;27;49671;-72
2022/04/03 00:25:16;;;;;;;;;12.50;12.50;;;;;-142.59;100.00;56100.38;5094263;27;50059;-72
2022/04/03 00:27:41;;;;;;;;;14.00;14.00;;;;;-142.59;100.00;56100.38;5093729;27;51152;-71
2022/04/03 00:30:08;;;;;;;;;16.25;12.75;;;;;-142.59;100.00;56100.38;5093831;27;49853;-69
2022/04/03 00:32:34;;;;;;;;;20.75;17.50;;;;;-142.59;100.00;56100.38;5093763;27;49734;-68
2022/04/03 00:34:59;;;;;;;;;19.00;17.50;;;;;-142.59;100.00;56100.38;5094015;27;49828;-72
2022/04/03 00:37:25;;;;;;;;;19.25;17.00;;;;;-142.59;100.00;56100.38;5093512;27;50454;-71
2022/04/03 00:39:50;;;;;;;;;14.00;12.25;;;;;-142.59;100.00;56100.38;5093590;27;49809;-71
2022/04/03 00:42:16;;;;;;;;;15.00;12.00;;;;;-142.59;100.00;56100.38;5093742;27;49833;-68
2022/04/03 00:44:42;;;;;;;;;15.25;14.50;;;;;-142.59;100.00;56100.38;5093707;27;49944;-70
2022/04/03 00:47:07;;;;;;;;;20.75;19.25;;;;;-142.59;100.00;56100.38;5093227;27;51392;-65
2022/04/03 00:49:33;;;;;;;;;16.25;16.25;;;;;-142.59;100.00;56100.38;5093529;27;49865;-69
2022/04/03 00:51:58;;;;;;;;;16.75;15.50;;;;;-142.59;100.00;56100.38;5093530;27;49746;-66
2022/04/03 00:54:24;;;;;;;;;19.75;16.75;;;;;-142.59;100.00;56100.38;5093254;27;49885;-69
2022/04/03 00:56:50;;;;;;;;;17.00;17.00;;;;;-142.59;100.00;56100.38;5093078;27;49724;-72
2022/04/03 00:59:16;;;;;;;;;20.50;20.50;;;;;-142.59;100.00;56100.38;5093576;27;49744;-72
2022/04/03 01:01:43;;;;;;;;;17.75;16.50;;;;;-142.59;100.00;56100.38;5093411;27;50345;-69
2022/04/03 01:04:08;;;;;;;;;14.50;14.50;;;;;-142.59;100.00;56100.38;5093439;27;50000;-70
2022/04/03 01:06:34;;;;;;;;;18.00;16.00;;;;;-142.59;100.00;56100.38;5092964;27;50675;-66
2022/04/03 01:09:02;;;;;;;;;16.00;16.00;;;;;-142.59;100.00;56100.38;5092941;27;49764;-68
2022/04/03 01:11:27;;;;;;;;;19.75;17.50;;;;;-142.59;100.00;56100.38;5093002;27;49847;-66
2022/04/03 01:13:53;;;;;;;;;18.00;15.75;;;;;-142.59;100.00;56100.38;5093349;27;49842;-72
2022/04/03 01:16:18;;;;;;;;;15.25;13.00;;;;;-142.59;100.00;56100.38;5093021;27;49883;-72
2022/04/03 01:18:44;;;;;;;;;19.25;16.25;;;;;-142.59;100.00;56100.38;5093083;27;50020;-67
2022/04/03 01:21:10;;;;;;;;;18.75;16.25;;;;;-142.59;100.00;56100.38;5093166;27;49803;-70
2022/04/03 01:23:36;;;;;;;;;22.25;20.50;;;;;-142.59;100.00;56100.38;5093202;27;49601;-67
2022/04/03 01:26:02;;;;;;;;;1.75;0.75;;;;;-142.59;100.00;56100.38;5092496;27;49984;-68
2022/04/03 01:28:27;;;;;;;;;18.75;15.75;;;;;-142.59;100.00;56100.38;5092736;27;49692;-69
2022/04/03 01:30:52;;;;;;;;;17.50;14.50;;;;;-142.59;100.00;56100.38;5092985;27;50006;-69
2022/04/03 01:33:17;;;;;;;;;17.25;13.00;;;;;-142.59;100.00;56100.38;5092867;27;49973;-72
2022/04/03 01:35:44;;;;;;;;;15.50;15.00;;;;;-142.59;100.00;56100.38;5092707;27;50561;-71
2022/04/03 01:38:09;;;;;;;;;15.75;14.25;;;;;-142.59;100.00;56100.38;5092681;27;49693;-67
2022/04/03 01:40:35;;;;;;;;;16.75;16.25;;;;;-142.59;100.00;56100.38;5092881;27;49989;-71
2022/04/03 01:43:06;;;;;;;;;13.00;12.00;;;;;-142.59;100.00;56100.38;5099115;27;49980;-69
2022/04/03 01:45:35;;;;;;;;;19.00;19.00;;;;;-142.59;100.00;56100.38;5091985;27;49770;-70
2022/04/03 01:48:01;;;;;;;;;14.50;14.50;;;;;-142.59;100.00;56100.38;5106088;27;49789;-71
2022/04/03 01:50:27;;;;;;;;;17.25;15.25;;;;;-142.59;100.00;56100.38;5112446;27;49761;-68
2022/04/03 01:52:52;;;;;;;;;15.50;15.00;;;;;-142.59;100.00;56100.38;5112612;27;49905;-69
2022/04/03 01:55:18;;;;;;;;;16.50;15.50;;;;;-142.59;100.00;56100.38;5112058;27;50850;-69
2022/04/03 01:57:44;;;;;;;;;19.50;13.75;;;;;-142.59;100.00;56100.38;5111979;27;49861;-72
2022/04/03 02:00:10;;;;;;;;;12.50;12.00;;;;;-142.59;100.00;56100.38;5112205;27;50293;-69
2022/04/03 02:02:37;;;;;;;;;20.00;18.75;;;;;-142.59;100.00;56100.38;5112033;27;50010;-70
2022/04/03 02:05:04;;;;;;;;;12.75;12.75;;;;;-142.59;100.00;56100.38;5111740;27;49659;-71
2022/04/03 02:07:30;;;;;;;;;18.75;16.75;;;;;-142.59;100.00;56100.38;5111162;27;49859;-69
2022/04/03 02:09:56;;;;;;;;;12.50;12.50;;;;;-142.59;100.00;56100.38;5111971;27;49746;-73
2022/04/03 02:12:22;;;;;;;;;16.75;16.00;;;;;-142.59;100.00;56100.38;5112086;27;49840;-69
2022/04/03 02:14:47;;;;;;;;;13.50;12.75;;;;;-142.59;100.00;56100.38;5111802;27;50276;-67
2022/04/03 02:17:13;;;;;;;;;15.25;14.75;;;;;-142.59;100.00;56100.38;5111851;27;49932;-72
2022/04/03 02:19:38;;;;;;;;;15.50;15.50;;;;;-142.59;100.00;56100.38;5111926;27;49821;-69
2022/04/03 02:22:04;;;;;;;;;18.00;18.00;;;;;-142.59;100.00;56100.38;5111965;27;49899;-73
2022/04/03 02:24:29;;;;;;;;;17.25;17.00;;;;;-142.59;100.00;56100.38;5111332;27;50342;-71
2022/04/03 02:26:54;;;;;;;;;22.50;15.75;;;;;-142.59;100.00;56100.38;5111487;27;49746;-72
2022/04/03 02:29:20;;;;;;;;;14.00;12.50;;;;;-142.59;100.00;56100.38;5111869;27;49703;-68
2022/04/03 02:31:45;;;;;;;;;14.75;10.75;;;;;-142.59;100.00;56100.38;5111853;27;49784;-73
2022/04/03 02:34:11;;;;;;;;;12.00;10.25;;;;;-142.59;100.00;56100.38;5111494;27;49808;-69
2022/04/03 02:36:40;;;;;;;;;14.75;13.00;;;;;-142.59;100.00;56100.38;5097426;27;49874;-70
2022/04/03 02:39:06;;;;;;;;;17.00;12.50;;;;;-142.59;100.00;56100.38;5091619;27;49734;-67
2022/04/03 02:41:32;;;;;;;;;14.00;14.00;;;;;-142.59;100.00;56100.38;5091616;27;49831;-71
2022/04/03 02:43:57;;;;;;;;;12.00;10.25;;;;;-142.59;100.00;56100.38;5091703;27;49885;-66
2022/04/03 02:46:23;;;;;;;;;16.75;12.75;;;;;-142.59;100.00;56100.38;5091730;27;50134;-66
2022/04/03 02:48:48;;;;;;;;;15.25;14.00;;;;;-142.59;100.00;56100.38;5091589;27;49802;-65
2022/04/03 02:51:14;;;;;;;;;17.00;16.00;;;;;-142.59;100.00;56100.38;5091908;27;49715;-68
2022/04/03 02:53:39;;;;;;;;;13.00;11.50;;;;;-142.59;100.00;56100.38;5091137;27;49927;-65
2022/04/03 02:56:05;;;;;;;;;14.25;14.25;;;;;-142.59;100.00;56100.38;5091271;27;49802;-65
2022/04/03 02:58:30;;;;;;;;;16.25;13.75;;;;;-142.59;100.00;56100.38;5091476;27;49849;-66
2022/04/03 03:00:55;;;;;;;;;25.75;21.75;;;;;-142.59;100.00;56100.38;5091591;27;49964;-66
2022/04/03 03:03:21;;;;;;;;;18.00;18.00;;;;;-142.59;100.00;56100.38;5091201;27;50500;-72
2022/04/03 03:05:46;;;;;;;;;14.25;12.25;;;;;-142.59;100.00;56100.38;5091234;27;50373;-65
2022/04/03 03:08:11;;;;;;;;;12.00;11.50;;;;;-142.59;100.00;56100.38;5091538;27;49916;-70
2022/04/03 03:10:37;;;;;;;;;20.00;16.00;;;;;-142.59;100.00;56100.38;5091721;27;49777;-73
2022/04/03 03:13:03;;;;;;;;;15.50;14.50;;;;;-142.59;100.00;56100.38;5090818;27;49816;-65
2022/04/03 03:15:28;;;;;;;;;19.25;17.00;;;;;-142.59;100.00;56100.38;5091231;27;49603;-70
2022/04/03 03:17:54;;;;;;;;;19.00;14.50;;;;;-142.59;100.00;56100.38;5091143;27;50039;-72
2022/04/03 03:20:21;;;;;;;;;17.75;16.25;;;;;-142.59;100.00;56100.38;5091501;27;49900;-68
2022/04/03 03:22:47;;;;;;;;;16.00;13.00;;;;;-142.59;100.00;56100.38;5091048;27;50338;-72
2022/04/03 03:25:12;;;;;;;;;18.25;16.25;;;;;-142.59;100.00;56100.38;5091184;27;50038;-67
2022/04/03 03:27:40;;;;;;;;;13.00;9.50;;;;;-142.59;100.00;56100.38;5091040;27;50092;-69
2022/04/03 03:30:08;;;;;;;;;15.50;15.25;;;;;-142.59;100.00;56100.38;5091270;27;49671;-67
2022/04/03 03:32:34;;;;;;;;;15.75;14.75;;;;;-142.59;100.00;56100.38;5090673;27;51438;-65
2022/04/03 03:35:03;;;;;;;;;17.75;15.75;;;;;-142.59;100.00;56100.38;5090852;27;49763;-66
2022/04/03 03:37:29;;;;;;;;;11.00;11.00;;;;;-142.59;100.00;56100.38;5090965;27;49883;-66
2022/04/03 03:39:54;;;;;;;;;12.25;12.25;;;;;-142.59;100.00;56100.38;5091365;27;49681;-67
2022/04/03 03:42:20;;;;;;;;;11.75;11.50;;;;;-142.59;100.00;56100.38;5090603;27;49672;-72
2022/04/03 03:44:45;;;;;;;;;15.25;13.75;;;;;-142.59;100.00;56100.38;5089432;27;49872;-70
2022/04/03 03:47:11;;;;;;;;;10.50;10.50;;;;;-142.59;100.00;56100.38;5110689;27;50404;-65
2022/04/03 03:49:36;;;;;;;;;14.00;12.50;;;;;-142.59;100.00;56100.38;5110834;27;49694;-66
2022/04/03 03:52:02;;;;;;;;;14.00;14.00;;;;;-142.59;100.00;56100.38;5110140;27;50543;-69
2022/04/03 03:54:27;;;;;;;;;19.25;16.00;;;;;-142.59;100.00;56100.38;5110318;27;49839;-72
2022/04/03 03:56:53;;;;;;;;;12.25;12.25;;;;;-142.59;100.00;56100.38;5090692;27;49844;-69
2022/04/03 03:59:18;;;;;;;;;15.75;12.50;;;;;-142.59;100.00;56100.38;5108741;27;49858;-73
2022/04/03 04:01:44;;;;;;;;;16.75;15.00;;;;;-142.59;100.00;56100.38;5110131;27;50484;-70
2022/04/03 04:04:09;;;;;;;;;12.75;12.75;;;;;-142.59;100.00;56100.38;5110377;27;49615;-65
2022/04/03 04:06:34;;;;;;;;;10.50;10.50;;;;;-142.59;100.00;56100.38;5110245;27;49855;-66
2022/04/03 04:08:59;;;;;;;;;13.00;12.00;;;;;-142.59;100.00;56100.38;5110252;27;50044;-71
2022/04/03 04:11:25;;;;;;;;;8.00;6.50;;;;;-142.59;100.00;56100.38;5110157;27;50585;-71
2022/04/03 04:13:50;;;;;;;;;12.50;12.50;;;;;-142.59;100.00;56100.38;5109884;27;49726;-72
2022/04/03 04:16:16;;;;;;;;;9.00;6.25;;;;;-142.59;100.00;56100.38;5110394;27;49873;-72
2022/04/03 04:18:42;;;;;;;;;15.00;15.00;;;;;-142.59;100.00;56100.38;5110494;27;49607;-71
2022/04/03 04:21:07;;;;;;;;;8.00;8.00;;;;;-142.59;100.00;56100.38;5109754;27;51555;-68
2022/04/03 04:23:33;;;;;;;;;11.00;11.00;;;;;-142.59;100.00;56100.38;5110006;27;50046;-72
2022/04/03 04:25:59;;;;;;;;;13.00;12.50;;;;;-142.59;100.00;56100.38;5109985;27;49977;-70
2022/04/03 04:28:25;;;;;;;;;14.75;12.25;;;;;-142.59;100.00;56100.38;5108744;27;49908;-72
2022/04/03 04:30:50;;;;;;;;;13.50;12.00;;;;;-142.59;100.00;56100.38;5112382;27;49705;-72
2022/04/03 04:33:16;;;;;;;;;8.00;8.00;;;;;-142.59;100.00;56100.38;5113889;27;49879;-73
2022/04/03 04:35:41;;;;;;;;;11.00;11.00;;;;;-142.59;100.00;56100.38;5113535;27;49781;-72
2022/04/03 04:38:06;;;;;;;;;10.50;9.50;;;;;-142.59;100.00;56100.38;5113816;27;50099;-66
2022/04/03 04:40:32;;;;;;;;;13.25;13.25;;;;;-142.59;100.00;56100.38;5113275;27;49866;-66
2022/04/03 04:43:00;;;;;;;;;13.75;12.00;;;;;-142.59;100.00;56100.38;5113118;27;49833;-65
2022/04/03 04:45:26;;;;;;;;;11.75;11.75;;;;;-142.59;100.00;56100.38;5113241;27;49794;-65
2022/04/03 04:47:59;;;;;;;;;5.50;2.50;;;;;-142.59;100.00;56100.38;5113422;27;49583;-66
2022/04/03 04:50:28;;;;;;;;;11.50;11.50;;;;;-142.59;100.00;56100.38;5113051;27;49918;-66
2022/04/03 04:52:55;;;;;;;;;14.00;11.50;;;;;-142.59;100.00;56100.38;5113269;27;50079;-65
2022/04/03 04:55:20;;;;;;;;;15.50;14.25;;;;;-142.59;100.00;56100.38;5113346;27;49938;-71
2022/04/03 04:58:04;;;;;;;;;12.25;9.25;;;;;-142.59;100.00;56100.38;5113118;27;49602;-64
2022/04/03 05:00:31;;;;;;;;;11.00;11.00;;;;;-142.59;100.00;56100.38;5112863;27;51675;-72
2022/04/03 05:02:57;;;;;;;;;14.50;8.25;;;;;-142.59;100.00;56100.38;5113021;27;49912;-67
2022/04/03 05:05:23;;;;;;;;;14.50;13.50;;;;;-142.59;100.00;56100.38;5113001;27;49764;-66
2022/04/03 05:07:59;;;;;;;;;11.25;11.25;;;;;-142.59;100.00;56100.38;5113436;27;49570;-65
2022/04/03 05:10:26;;;;;;;;;12.00;11.00;;;;;-142.59;100.00;56100.38;5112997;27;50439;-65
2022/04/03 05:12:54;;;;;;;;;14.25;12.25;;;;;-142.59;100.00;56100.38;5112749;27;49692;-66
2022/04/03 05:15:19;;;;;;;;;11.00;11.00;;;;;-142.59;100.00;56100.38;5113034;27;49777;-66
2022/04/03 05:17:45;;;;;;;;;11.25;11.25;;;;;-142.59;100.00;56100.38;5113251;27;50036;-66
2022/04/03 05:20:13;;;;;;;;;18.50;15.50;;;;;-142.59;100.00;56100.38;5112608;27;51003;-67
2022/04/03 05:22:39;;;;;;;;;8.00;8.00;;;;;-142.59;100.00;56100.38;5112745;27;49686;-69
2022/04/03 05:25:05;;;;;;;;;12.25;11.75;;;;;-142.59;100.00;56100.38;5113123;27;49725;-65
2022/04/03 05:27:32;;;;;;;;;12.50;12.00;;;;;-142.59;100.00;56100.38;5099922;27;49718;-71
2022/04/03 05:29:57;;;;;;;;;10.25;10.25;;;;;-142.59;100.00;56100.38;5092645;27;50702;-67
2022/04/03 05:32:28;;;;;;;;;18.00;16.50;;;;;-142.59;100.00;56100.38;5093108;27;50112;-71
2022/04/03 05:34:54;;;;;;;;;3.25;2.00;;;;;-142.59;100.00;56100.38;5092963;27;49753;-65
2022/04/03 05:37:19;;;;;;;;;13.00;13.00;;;;;-142.59;100.00;56100.38;5093047;27;49636;-66
2022/04/03 05:39:45;;;;;;;;;11.50;11.50;;;;;-142.59;100.00;56100.38;5092572;27;50694;-70
2022/04/03 05:42:11;;;;;;;;;14.00;12.25;;;;;-142.59;100.00;56100.38;5091682;27;49722;-66
2022/04/03 05:44:37;;;;;;;;;16.00;14.50;;;;;-142.59;100.00;56100.38;5092541;27;49694;-68
2022/04/03 05:47:02;;;;;;;;;14.25;11.75;;;;;-142.59;100.00;56100.38;5092955;27;49607;-73
2022/04/03 05:49:28;;;;;;;;;10.25;8.75;;;;;-142.59;100.00;56100.38;5092725;27;50387;-71
2022/04/03 05:51:53;;;;;;;;;12.50;10.00;;;;;-142.59;100.00;56100.38;5092507;27;49775;-72
2022/04/03 05:54:18;;;;;;;;;12.25;11.00;;;;;-142.59;100.00;56100.38;5092656;27;50178;-72
2022/04/03 05:56:44;;;;;;;;;11.00;11.00;;;;;-142.59;100.00;56100.38;5092720;27;49961;-73
2022/04/03 05:59:09;;;;;;;;;11.25;9.00;;;;;-142.59;100.00;56100.38;5092183;27;50363;-67
2022/04/03 06:01:35;;;;;;;;;15.50;14.75;;;;;-142.59;100.00;56100.38;5092511;27;49706;-73
2022/04/03 06:04:00;;;;;;;;;9.50;9.50;;;;;-142.59;100.00;56100.38;5092257;27;49863;-70
2022/04/03 06:06:25;;;;;;;;;12.50;12.50;;;;;-142.59;100.00;56100.38;5092624;27;49776;-72
2022/04/03 06:08:51;;;;;;;;;13.00;11.25;;;;;-142.59;100.00;56100.38;5092314;27;49670;-72
2022/04/03 06:11:18;;;;;;;;;21.25;18.50;;;;;-142.59;100.00;56100.38;5092117;27;49824;-69
2022/04/03 06:13:43;;;;;;;;;13.00;11.50;;;;;-142.59;100.00;56100.38;5090805;27;49624;-73
2022/04/03 06:16:10;;;;;;;;;18.75;14.75;;;;;-142.59;100.00;56100.38;5092355;27;49753;-72
2022/04/03 06:18:36;;;;;;;;;15.75;13.00;;;;;-142.59;100.00;56100.38;5090081;27;52243;-66
2022/04/03 06:21:01;;;;;;;;;12.50;8.00;;;;;-142.59;100.00;56100.38;5092170;27;49907;-68
2022/04/03 06:23:27;;;;;;;;;15.75;13.00;;;;;-142.59;100.00;56100.38;5092306;27;50021;-71
2022/04/03 06:25:54;;;;;;;;;13.00;12.50;;;;;-142.59;100.00;56100.38;5111983;27;49859;-69
2022/04/03 06:28:20;;;;;;;;;13.50;11.50;;;;;-142.59;100.00;56100.38;5127229;27;51571;-65
2022/04/03 06:30:46;;;;;;;;;6.75;5.50;;;;;-142.59;100.00;56100.38;5111767;27;49896;-69
2022/04/03 06:33:12;;;;;;;;;13.75;13.75;;;;;-142.59;100.00;56100.38;5111598;27;49778;-70
2022/04/03 06:35:38;;;;;;;;;12.75;10.75;;;;;-142.59;100.00;56100.38;5111761;27;50062;-65
2022/04/03 06:38:04;;;;;;;;;17.00;10.00;;;;;-142.59;100.00;56100.38;5111516;27;50536;-70
2022/04/03 06:40:34;;;;;;;;;13.50;11.75;;;;;-142.59;100.00;56100.38;5111355;27;49713;-65
2022/04/03 06:43:00;;;;;;;;;12.75;11.50;;;;;-142.59;100.00;56100.38;5111448;27;49893;-72
2022/04/03 06:45:26;;;;;;;;;24.25;17.00;;;;;-142.59;100.00;56100.38;5111694;27;49999;-70
2022/04/03 06:47:52;;;;;;;;;12.50;12.50;;;;;-142.59;100.00;56100.38;5111334;27;49906;-67
2022/04/03 06:50:19;;;;;;;;;6.50;4.75;;;;;-142.59;100.00;56100.38;5111287;27;49824;-70
2022/04/03 06:52:46;;;;;;;;;8.25;7.00;;;;;-142.59;100.00;56100.38;5110990;27;49767;-65
2022/04/03 06:55:12;;;;;;;;;14.50;11.00;;;;;-142.59;100.00;56100.38;5111425;27;49791;-72
2022/04/03 06:57:37;;;;;;;;;19.50;13.00;;;;;-142.59;100.00;56100.38;5111054;27;49636;-65
2022/04/03 07:00:06;;;;;;;;;10.75;9.00;;;;;-142.59;100.00;56100.38;5111375;27;49971;-69
2022/04/03 07:02:35;;;;;;;;;14.00;12.00;;;;;-142.59;100.00;56100.38;5111283;27;49962;-65
2022/04/03 07:05:02;;;;;;;;;10.00;9.00;;;;;-142.59;100.00;56100.38;5111238;27;49966;-68
2022/04/03 07:07:27;;;;;;;;;7.25;5.00;;;;;-142.59;100.00;56100.38;5110842;27;50966;-66
2022/04/03 07:09:53;;;;;;;;;9.75;9.75;;;;;-142.59;100.00;56100.38;5111026;27;49799;-67
2022/04/03 07:12:20;;;;;;;;;15.50;14.25;;;;;-142.59;100.00;56100.38;5110995;27;51065;-66
2022/04/03 07:14:46;;;;;;;;;9.25;8.25;;;;;-142.59;100.00;56100.38;5111074;27;49792;-66
2022/04/03 07:17:11;;;;;;;;;15.50;12.00;;;;;-142.59;100.00;56100.38;5111159;27;50485;-65
2022/04/03 07:19:37;;;;;;;;;16.00;13.50;;;;;-142.59;100.00;56100.38;5105995;27;49892;-68
2022/04/03 07:22:02;;;;;;;;;9.25;6.00;;;;;-142.59;100.00;56100.38;5091131;27;49998;-67
2022/04/03 07:24:28;;;;;;;;;13.00;13.00;;;;;-142.59;100.00;56100.38;5091111;27;49960;-68
2022/04/03 07:26:54;;;;;;;;;11.25;11.25;;;;;-142.59;100.00;56100.38;5090476;27;50587;-66
2022/04/03 07:29:20;;;;;;;;;11.00;11.00;;;;;-142.59;100.00;56100.38;5089394;27;49774;-69
2022/04/03 07:31:46;;;;;;;;;11.50;10.50;;;;;-142.59;100.00;56100.38;5091119;27;49800;-70
2022/04/03 07:34:12;;;;;;;;;11.50;8.50;;;;;-142.59;100.00;56100.38;5091342;27;49905;-67
2022/04/03 07:36:37;;;;;;;;;8.25;8.25;;;;;-142.59;100.00;56100.38;5090898;27;49979;-68
2022/04/03 07:39:03;;;;;;;;;21.00;15.00;;;;;-142.59;100.00;56100.38;5091106;27;49877;-71
2022/04/03 07:41:28;;;;;;;;;7.25;7.25;;;;;-142.59;100.00;56100.38;5091126;27;49863;-66
2022/04/03 07:43:54;;;;;;;;;14.25;11.75;;;;;-142.59;100.00;56100.38;5090850;27;49993;-68
2022/04/03 07:46:19;;;;;;;;;12.75;11.00;;;;;-142.59;100.00;56100.38;5106358;27;51746;-71
2022/04/03 07:48:45;;;;;;;;;6.75;6.75;;;;;-142.59;100.00;56100.38;5090902;27;49845;-70
2022/04/03 07:51:11;;;;;;;;;8.25;8.25;;;;;-142.59;100.00;56100.38;5090931;27;49949;-66
2022/04/03 07:53:37;;;;;;;;;7.75;6.75;;;;;-142.59;100.00;56100.38;5091032;27;49949;-70
2022/04/03 07:56:05;;;;;;;;;9.50;9.50;;;;;-142.59;100.00;56100.38;5090707;27;50714;-68
2022/04/03 07:58:31;;;;;;;;;8.00;8.00;;;;;-142.59;100.00;56100.38;5090650;27;49632;-67
2022/04/03 08:00:57;;;;;;;;;9.75;7.25;;;;;-142.59;100.00;56100.38;5090786;27;49901;-65
2022/04/03 08:03:22;;;;;;;;;14.75;11.00;;;;;-142.59;100.00;56100.38;5090741;27;50080;-71
2022/04/03 08:05:47;;;;;;;;;7.50;7.50;;;;;-142.59;100.00;56100.38;5092791;27;49846;-70
2022/04/03 08:08:13;;;;;;;;;8.50;8.25;;;;;-142.59;100.00;56100.38;5094457;27;49767;-69
2022/04/03 08:10:38;;;;;;;;;5.25;5.25;;;;;-142.59;100.00;56100.38;5094364;27;50232;-69
2022/04/03 08:13:04;;;;;;;;;11.75;8.50;;;;;-142.59;100.00;56100.38;5094404;27;49965;-66
2022/04/03 08:15:30;;;;;;;;;8.00;8.00;;;;;-142.59;100.00;56100.38;5093990;27;50724;-66
2022/04/03 08:17:58;;;;;;;;;7.50;7.50;;;;;-142.59;100.00;56100.38;5094008;27;49800;-71
2022/04/03 08:20:23;;;;;;;;;5.50;4.50;;;;;-142.59;100.00;56100.38;5093924;27;49592;-68
2022/04/03 08:22:49;;;;;;;;;8.25;8.00;;;;;-142.59;100.00;56100.38;5094165;27;49995;-69
2022/04/03 08:25:16;;;;;;;;;9.00;9.00;;;;;-142.59;100.00;56100.38;5093885;27;49917;-67
2022/04/03 08:27:50;;;;;;;;;21.25;11.50;;;;;-142.59;100.00;56100.38;5093754;27;49814;-66
2022/04/03 08:30:19;;;;;;;;;8.25;7.00;;;;;-142.59;100.00;56100.38;5094071;27;49878;-68
2022/04/03 08:32:44;;;;;;;;;7.00;6.00;;;;;-142.59;100.00;56100.38;5094314;27;50077;-72
2022/04/03 08:35:11;;;;;;;;;5.00;3.50;;;;;-142.59;100.00;56100.38;5093478;27;49809;-66
2022/04/03 08:37:37;;;;;;;;;8.25;5.75;;;;;-142.59;100.00;56100.38;5093917;27;49805;-72
2022/04/03 08:40:07;;;;;;;;;4.75;4.75;;;;;-142.59;100.00;56100.38;5093885;27;49906;-66
2022/04/03 08:42:33;;;;;;;;;4.50;4.50;;;;;-142.59;100.00;56100.38;5093599;27;50016;-70
2022/04/03 08:44:58;;;;;;;;;2.00;2.00;;;;;-142.59;100.00;56100.38;5092129;27;51809;-67
2022/04/03 08:47:26;;;;;;;;;3.50;3.50;;;;;-142.59;100.00;56100.38;5093581;27;49946;-69
2022/04/03 08:49:57;;;;;;;;;1.50;1.50;;;;;-142.59;100.00;56100.38;5093654;27;49959;-72
2022/04/03 08:52:23;;;;;;;;;9.50;4.00;;;;;-142.59;100.00;56100.38;5093724;27;49873;-68
2022/04/03 08:54:49;;;;;;;;;6.50;6.00;;;;;-142.59;100.00;56100.38;5092892;27;50773;-67
2022/04/03 08:57:14;;;;;;;;;10.00;4.50;;;;;-142.59;100.00;56100.38;5093226;27;49940;-73
2022/04/03 08:59:40;;;;;;;;;2.00;2.00;;;;;-142.59;100.00;56100.38;5093213;27;50065;-72
2022/04/03 09:02:05;;;;;;;;;2.25;2.00;;;;;-142.59;100.00;56100.38;5093518;27;49939;-72
2022/04/03 09:04:31;;;;;;;;;4.00;4.00;;;;;-142.59;100.00;56100.38;5093159;27;49750;-66
2022/04/03 09:06:58;;;;;;;;;6.00;5.50;;;;;-142.59;100.00;56100.38;5093195;27;49831;-72
2022/04/03 09:09:25;;;;;;;;;2.00;2.00;;;;;-142.59;100.00;56100.38;5093474;27;49914;-71
2022/04/03 09:12:09;;;;;;;;;1.25;1.25;;;;;-142.59;100.00;56100.38;5093454;27;49948;-70
2022/04/03 09:14:34;;;;;;;;;3.50;3.50;;;;;-142.59;100.00;56100.38;5092593;27;49818;-71
2022/04/03 09:17:00;;;;;;;;;1.00;1.00;;;;;-142.59;100.00;56100.38;5093117;27;49824;-66
2022/04/03 09:19:34;;;;;;;;;6.00;4.00;;;;;-142.59;100.00;56100.38;5091916;27;49945;-70
2022/04/03 09:22:01;;;;;;;;;3.75;3.75;;;;;-142.59;100.00;56100.38;5093460;27;49765;-68
2022/04/03 09:24:27;;;;;;;;;2.00;0.75;;;;;-142.59;100.00;56100.38;5092953;27;50221;-66
2022/04/03 09:27:01;;;;;;;;;2.25;2.25;;;;;-142.59;100.00;56100.38;5092930;27;49876;-66
2022/04/03 09:29:27;;;;;;;;;4.75;4.75;;;;;-142.59;100.00;56100.38;5092975;27;49728;-72
2022/04/03 09:32:00;;;;;;;;;6.00;6.00;;;;;-142.59;100.00;56100.38;5103873;27;49816;-67
2022/04/03 09:34:28;;;;;;;;;9.00;5.25;;;;;-142.59;100.00;56100.38;5112269;27;49605;-67
2022/04/03 09:37:04;;;;;;;;;6.00;6.00;;;;;-142.59;100.00;56100.38;5112528;27;49797;-65
2022/04/03 09:39:30;;;;;;;;;5.25;4.00;;;;;-142.59;100.00;56100.38;5112556;27;49530;-65
2022/04/03 09:42:03;;;;;;;;;1.00;1.00;;;;;-142.59;100.00;56100.38;5112857;27;50018;-66
2022/04/03 09:44:37;;;;;;;;;2.00;2.00;;;;;-142.59;100.00;56100.38;5112441;27;50050;-67
2022/04/03 09:47:20;;;;;;;;;4.50;3.25;;;;;-142.59;100.00;56100.38;5112285;27;49622;-65
2022/04/03 09:50:00;;;;;;;;;2.00;2.00;;;;;-142.59;100.00;56100.38;5112237;27;49827;-69
2022/04/03 09:52:34;;;;;;;;;5.00;5.00;;;;;-142.59;100.00;56100.38;5112459;27;49726;-67
2022/04/03 09:55:01;;;;;;;;;4.00;4.00;;;;;-142.59;100.00;56100.38;5111932;27;50576;-65
2022/04/03 09:57:26;;;;;;;;;3.25;3.25;;;;;-142.59;100.00;56100.38;5111941;27;49607;-68
2022/04/03 09:59:55;;;;;;;;;2.50;2.50;;;;;-142.59;100.00;56100.38;5112399;27;49980;-66
2022/04/03 10:02:22;;;;;;;;;3.00;1.75;;;;;-142.59;100.00;56100.38;5112503;27;49728;-68
2022/04/03 10:04:50;;;;;;;;;0.00;0.00;;;;;-142.59;100.00;56100.38;5111740;27;50890;-66
2022/04/03 10:07:15;;;;;;;;;3.50;2.00;;;;;-142.59;100.00;56100.38;5111969;27;49876;-68
2022/04/03 10:09:48;;;;;;;;;1.50;1.50;;;;;-142.59;100.00;56100.38;5111978;27;49914;-69
2022/04/03 10:12:27;;;;;;;;;2.50;2.50;;;;;-142.59;100.00;56100.38;5112270;27;49611;-73
2022/04/03 10:14:52;;;;;;;;;2.25;2.25;;;;;-142.59;100.00;56100.38;5115183;27;50371;-68
2022/04/03 10:17:20;;;;;;;;;3.00;2.00;;;;;-142.59;100.00;56100.38;5121318;27;50004;-69
2022/04/03 10:19:46;;;;;;;;;1.00;1.00;;;;;-142.59;100.00;56100.38;5105943;27;49840;-70
2022/04/03 10:22:17;;;;;;;;;4.75;2.75;;;;;-142.59;100.00;56100.38;5113883;27;50124;-73
2022/04/03 10:24:46;;;;;;;;;0.25;0.25;;;;;-142.59;100.00;56100.38;5112134;27;50666;-67
2022/04/03 10:27:24;;;;;;;;;2.00;2.00;;;;;-142.59;100.00;56100.38;5110853;27;49633;-68
2022/04/03 10:29:54;;;;;;;;;2.00;1.00;;;;;-142.59;100.00;56100.38;5111721;27;49803;-73
2022/04/03 10:32:27;;;;;;;;;1.75;1.75;;;;;-142.59;100.00;56100.38;5110739;27;50043;-71
2022/04/03 10:34:56;;;;;;;;;2.25;2.25;;;;;-142.59;100.00;56100.38;5112020;27;50587;-77
2022/04/03 10:37:35;;;;;;;;;3.50;1.75;;;;;-142.59;100.00;56100.38;5111788;27;49885;-70
2022/04/03 10:40:05;;;;;;;;;2.50;2.50;;;;;-142.59;100.00;56100.38;5111730;27;49870;-76
2022/04/03 10:42:30;;;;;;;;;0.00;0.00;;;;;-142.59;100.00;56100.38;5111478;27;49938;-77
2022/04/03 10:45:11;;;;;;;;;3.00;3.00;;;;;-142.59;100.00;56100.38;5093717;27;49894;-66
2022/04/03 10:47:37;;;;;;;;;2.75;2.00;;;;;-142.59;100.00;56100.38;5091692;27;50403;-72
2022/04/03 10:50:05;;;;;;;;;1.75;1.75;;;;;-142.59;100.00;56100.38;5091901;27;49956;-71
2022/04/03 10:52:40;;;;;;;;;0.00;0.00;;;;;-142.59;100.00;56100.38;5091903;27;49757;-77
2022/04/03 10:55:27;;;;;;;;;2.25;2.00;;;;;-142.59;100.00;56100.38;5091181;27;51163;-70
2022/04/03 10:57:54;;;;;;;;;2.00;2.00;;;;;-142.59;100.00;56100.38;5091220;27;49801;-70